Time;durP1;ratioP1;P1;durP2;ratioP2;P2;SDS_P1;SDS_P2;PMS_P1;PMS_P2;Temp;Humidity;BMP_temperature;BMP_pressure;BME280_temperature;BME280_humidity;BME280_pressure;Samples;Min_cycle;Max_cycle;Signal;HPM_P1;HPM_P2
2022/03/20 00:00:53;;;;;;;10.82;5.90;;;;;;;;;;4827954;29;20049;-77
2022/03/20 00:03:20;;;;;;;11.30;6.28;;;;;;;;;;4843486;29;20069;-76
2022/03/20 00:05:48;;;;;;;11.35;5.70;;;;;;;;;;4828471;29;20528;-76
2022/03/20 00:08:17;;;;;;;10.63;6.05;;;;;;;;;;4827579;29;20076;-77
2022/03/20 00:10:48;;;;;;;11.77;6.60;;;;;;;;;;4828057;29;20090;-77
2022/03/20 00:13:20;;;;;;;9.02;6.10;;;;;;;;;;4841892;29;20037;-76
2022/03/20 00:15:51;;;;;;;11.77;6.25;;;;;;;;;;4828268;29;20068;-76
2022/03/20 00:18:32;;;;;;;9.05;5.88;;;;;;;;;;4842805;29;20048;-76
2022/03/20 00:21:02;;;;;;;9.85;6.25;;;;;;;;;;4827863;29;20088;-76
2022/03/20 00:23:32;;;;;;;13.57;6.68;;;;;;;;;;4827454;29;20056;-76
2022/03/20 00:26:02;;;;;;;10.23;5.78;;;;;;;;;;4827527;29;20061;-76
2022/03/20 00:28:32;;;;;;;9.98;6.00;;;;;;;;;;4826983;29;20045;-76
2022/03/20 00:31:01;;;;;;;8.73;6.07;;;;;;;;;;4842518;29;20053;-76
2022/03/20 00:33:33;;;;;;;11.45;6.25;;;;;;;;;;4809970;29;20050;-76
2022/03/20 00:36:03;;;;;;;10.90;6.10;;;;;;;;;;4809256;29;20159;-77
2022/03/20 00:38:32;;;;;;;12.57;6.15;;;;;;;;;;4809101;29;20045;-76
2022/03/20 00:41:02;;;;;;;10.90;6.13;;;;;;;;;;4824440;29;20053;-76
2022/03/20 00:43:32;;;;;;;10.35;6.32;;;;;;;;;;4823622;29;20057;-76
2022/03/20 00:46:01;;;;;;;10.73;5.88;;;;;;;;;;4809571;29;20094;-76
2022/03/20 00:48:27;;;;;;;14.43;6.53;;;;;;;;;;4809177;29;20057;-76
2022/03/20 00:50:53;;;;;;;13.07;6.10;;;;;;;;;;4809230;29;20052;-76
2022/03/20 00:53:19;;;;;;;10.30;6.05;;;;;;;;;;4808735;29;20351;-76
2022/03/20 00:55:45;;;;;;;12.57;6.15;;;;;;;;;;4809279;29;20194;-77
2022/03/20 00:58:12;;;;;;;14.02;7.10;;;;;;;;;;4809129;29;20050;-77
2022/03/20 01:00:38;;;;;;;12.82;5.72;;;;;;;;;;4809363;29;20145;-77
2022/03/20 01:03:04;;;;;;;12.07;6.53;;;;;;;;;;4824703;29;20054;-77
2022/03/20 01:05:30;;;;;;;10.80;6.75;;;;;;;;;;4808864;29;20122;-76
2022/03/20 01:07:59;;;;;;;11.07;5.75;;;;;;;;;;4809424;29;20053;-76
2022/03/20 01:10:25;;;;;;;12.30;6.55;;;;;;;;;;4809069;29;20049;-77
2022/03/20 01:12:51;;;;;;;12.27;6.22;;;;;;;;;;4824416;29;20125;-76
2022/03/20 01:15:18;;;;;;;14.32;6.45;;;;;;;;;;4809100;29;20050;-77
2022/03/20 01:17:44;;;;;;;11.35;6.13;;;;;;;;;;4824215;29;20482;-76
2022/03/20 01:20:11;;;;;;;10.40;7.05;;;;;;;;;;4809004;29;20117;-78
2022/03/20 01:22:39;;;;;;;15.32;6.68;;;;;;;;;;4809674;29;20543;-76
2022/03/20 01:25:06;;;;;;;15.27;7.15;;;;;;;;;;4825666;29;20529;-76
2022/03/20 01:27:32;;;;;;;12.18;6.90;;;;;;;;;;4812303;29;20085;-77
2022/03/20 01:29:58;;;;;;;12.23;7.32;;;;;;;;;;4827221;29;20535;-77
2022/03/20 01:32:26;;;;;;;11.95;6.78;;;;;;;;;;4826426;29;20108;-77
2022/03/20 01:34:52;;;;;;;10.60;6.53;;;;;;;;;;4812368;29;20049;-77
2022/03/20 01:37:19;;;;;;;9.68;6.68;;;;;;;;;;4811849;29;20041;-76
2022/03/20 01:39:45;;;;;;;11.68;6.50;;;;;;;;;;4812201;29;20081;-76
2022/03/20 01:42:11;;;;;;;14.60;7.28;;;;;;;;;;4811796;29;20046;-77
2022/03/20 01:44:38;;;;;;;12.65;7.07;;;;;;;;;;4812307;29;20541;-77
2022/03/20 01:47:08;;;;;;;13.57;7.30;;;;;;;;;;4827248;29;20109;-77
2022/03/20 01:49:34;;;;;;;12.45;7.18;;;;;;;;;;4826712;29;20202;-77
2022/03/20 01:52:23;;;;;;;12.25;6.60;;;;;;;;;;4826942;29;20042;-77
2022/03/20 01:54:49;;;;;;;17.48;7.10;;;;;;;;;;4827032;29;20042;-77
2022/03/20 01:57:16;;;;;;;13.88;6.70;;;;;;;;;;4826603;29;20137;-78
2022/03/20 01:59:43;;;;;;;11.77;7.57;;;;;;;;;;4827044;29;20046;-77
2022/03/20 02:02:09;;;;;;;11.65;7.50;;;;;;;;;;4826702;29;20363;-77
2022/03/20 02:04:36;;;;;;;15.00;7.18;;;;;;;;;;4826572;29;20045;-77
2022/03/20 02:07:02;;;;;;;13.93;7.30;;;;;;;;;;4811598;29;20097;-77
2022/03/20 02:09:28;;;;;;;16.55;7.03;;;;;;;;;;4826656;29;20046;-77
2022/03/20 02:11:55;;;;;;;12.40;7.65;;;;;;;;;;4811712;29;20053;-78
2022/03/20 02:14:21;;;;;;;14.38;7.82;;;;;;;;;;4826833;29;20041;-77
2022/03/20 02:16:47;;;;;;;11.77;6.75;;;;;;;;;;4826695;29;20050;-77
2022/03/20 02:19:14;;;;;;;12.48;7.47;;;;;;;;;;4811580;29;20429;-78
2022/03/20 02:21:47;;;;;;;12.70;7.55;;;;;;;;;;4811308;29;20129;-76
2022/03/20 02:24:32;;;;;;;12.20;7.35;;;;;;;;;;4826562;29;20141;-76
2022/03/20 02:27:18;;;;;;;13.57;8.10;;;;;;;;;;4826484;29;20050;-78
2022/03/20 02:29:45;;;;;;;16.23;8.10;;;;;;;;;;4826475;29;20053;-77
2022/03/20 02:32:12;;;;;;;14.82;7.72;;;;;;;;;;4825641;29;20061;-77
2022/03/20 02:34:39;;;;;;;13.93;8.65;;;;;;;;;;4825804;29;20058;-77
2022/03/20 02:37:06;;;;;;;17.27;8.32;;;;;;;;;;4810697;29;20390;-76
2022/03/20 02:39:33;;;;;;;14.52;8.68;;;;;;;;;;4825557;29;20382;-77
2022/03/20 02:42:03;;;;;;;12.52;8.30;;;;;;;;;;4826172;29;20050;-77
2022/03/20 02:44:49;;;;;;;13.88;8.68;;;;;;;;;;4810505;29;20066;-77
2022/03/20 02:47:19;;;;;;;16.83;9.25;;;;;;;;;;4810946;29;20129;-77
2022/03/20 02:49:46;;;;;;;18.20;9.32;;;;;;;;;;4826336;29;20386;-77
2022/03/20 02:52:12;;;;;;;15.77;9.40;;;;;;;;;;4825927;29;20099;-77
2022/03/20 02:54:38;;;;;;;18.83;9.68;;;;;;;;;;4825846;29;20132;-78
2022/03/20 02:57:08;;;;;;;13.45;8.77;;;;;;;;;;4810644;29;20053;-77
2022/03/20 02:59:34;;;;;;;14.60;8.77;;;;;;;;;;4825697;29;20049;-77
2022/03/20 03:02:01;;;;;;;14.80;9.13;;;;;;;;;;4825616;29;20053;-77
2022/03/20 03:04:27;;;;;;;16.65;9.60;;;;;;;;;;4825830;29;20089;-77
2022/03/20 03:06:53;;;;;;;15.73;9.40;;;;;;;;;;4810812;29;20102;-77
2022/03/20 03:12:05;;;;;;;15.32;9.48;;;;;;;;;;4825363;29;20382;-77
2022/03/20 03:17:27;;;;;;;20.45;10.65;;;;;;;;;;4825881;29;20390;-77
2022/03/20 03:19:54;;;;;;;15.50;10.60;;;;;;;;;;4825926;29;20049;-77
2022/03/20 03:22:20;;;;;;;16.55;9.85;;;;;;;;;;4809897;29;20052;-77
2022/03/20 03:24:46;;;;;;;16.40;10.65;;;;;;;;;;4825570;29;20370;-76
2022/03/20 03:27:12;;;;;;;15.98;9.80;;;;;;;;;;4810628;29;20050;-76
2022/03/20 03:29:39;;;;;;;17.95;10.38;;;;;;;;;;4825562;29;20049;-76
2022/03/20 03:32:05;;;;;;;18.65;10.23;;;;;;;;;;4824746;29;20153;-77
2022/03/20 03:37:20;;;;;;;14.73;10.23;;;;;;;;;;4825368;29;20436;-76
2022/03/20 03:39:46;;;;;;;17.38;11.18;;;;;;;;;;4810290;29;20057;-76
2022/03/20 03:42:12;;;;;;;21.90;11.48;;;;;;;;;;4809942;29;20053;-76
2022/03/20 03:44:39;;;;;;;21.60;11.02;;;;;;;;;;4824931;29;20056;-76
2022/03/20 03:47:06;;;;;;;21.10;10.80;;;;;;;;;;4810062;29;20433;-76
2022/03/20 03:49:33;;;;;;;23.70;12.10;;;;;;;;;;4824846;29;20083;-77
2022/03/20 03:52:00;;;;;;;18.40;11.20;;;;;;;;;;4809966;29;20046;-76
2022/03/20 03:54:27;;;;;;;21.20;12.23;;;;;;;;;;4809761;29;20046;-76
2022/03/20 03:56:53;;;;;;;21.85;11.95;;;;;;;;;;4825334;29;20050;-76
2022/03/20 03:59:19;;;;;;;17.83;11.52;;;;;;;;;;4825387;29;20420;-76
2022/03/20 04:01:45;;;;;;;17.48;11.93;;;;;;;;;;4809735;29;20046;-75
2022/03/20 04:04:11;;;;;;;18.88;11.68;;;;;;;;;;4810035;29;20081;-77
2022/03/20 04:06:37;;;;;;;17.92;11.20;;;;;;;;;;4809610;29;20046;-78
2022/03/20 04:09:04;;;;;;;19.70;11.93;;;;;;;;;;4809730;29;20549;-76
2022/03/20 04:11:30;;;;;;;22.20;12.70;;;;;;;;;;4824507;29;20041;-76
2022/03/20 04:13:56;;;;;;;17.48;11.25;;;;;;;;;;4824893;29;20434;-76
2022/03/20 04:16:22;;;;;;;22.08;12.32;;;;;;;;;;4824565;29;20049;-77
2022/03/20 04:18:49;;;;;;;20.83;12.45;;;;;;;;;;4810111;29;20382;-76
2022/03/20 04:21:15;;;;;;;24.08;13.00;;;;;;;;;;4809763;29;20377;-76
2022/03/20 04:23:45;;;;;;;18.88;12.13;;;;;;;;;;4824648;29;20447;-77
2022/03/20 04:26:17;;;;;;;20.45;13.45;;;;;;;;;;4810267;29;20046;-77
2022/03/20 04:28:50;;;;;;;27.35;12.85;;;;;;;;;;4824426;29;20061;-76
2022/03/20 04:31:17;;;;;;;21.92;12.48;;;;;;;;;;4809423;29;20046;-77
2022/03/20 04:33:44;;;;;;;21.80;12.70;;;;;;;;;;4808460;29;20451;-76
2022/03/20 04:36:10;;;;;;;21.10;12.43;;;;;;;;;;4809339;29;20042;-76
2022/03/20 04:38:36;;;;;;;20.17;11.90;;;;;;;;;;4824460;29;20132;-77
2022/03/20 04:41:03;;;;;;;19.52;12.10;;;;;;;;;;4824634;29;20046;-76
2022/03/20 04:43:29;;;;;;;20.63;12.75;;;;;;;;;;4809249;29;20046;-76
2022/03/20 04:45:55;;;;;;;23.60;13.80;;;;;;;;;;4809456;29;20478;-76
2022/03/20 04:59:20;;;;;;;18.85;12.68;;;;;;;;;;4812768;29;20057;-77
2022/03/20 05:01:46;;;;;;;22.17;13.85;;;;;;;;;;4827658;29;20470;-77
2022/03/20 05:04:13;;;;;;;20.17;13.60;;;;;;;;;;4827942;29;20114;-77
2022/03/20 05:06:45;;;;;;;22.45;13.48;;;;;;;;;;4827185;29;20050;-76
2022/03/20 05:14:41;;;;;;;23.48;13.88;;;;;;;;;;4827242;29;20066;-76
2022/03/20 05:17:08;;;;;;;22.52;13.15;;;;;;;;;;4812434;29;20054;-76
2022/03/20 05:19:38;;;;;;;22.50;14.73;;;;;;;;;;4827036;29;20050;-78
2022/03/20 05:22:04;;;;;;;20.80;13.75;;;;;;;;;;4813030;29;20117;-76
2022/03/20 05:24:31;;;;;;;23.73;13.52;;;;;;;;;;4812375;29;20052;-76
2022/03/20 05:26:58;;;;;;;20.33;13.73;;;;;;;;;;4827213;29;20056;-76
2022/03/20 05:29:24;;;;;;;21.35;13.32;;;;;;;;;;4827317;29;20099;-77
2022/03/20 05:31:50;;;;;;;23.95;14.82;;;;;;;;;;4812232;29;20090;-76
2022/03/20 05:34:16;;;;;;;22.48;14.40;;;;;;;;;;4827239;29;20050;-76
2022/03/20 05:36:43;;;;;;;23.55;14.57;;;;;;;;;;4826959;29;20092;-76
2022/03/20 05:39:09;;;;;;;22.85;14.93;;;;;;;;;;4827108;29;20046;-76
2022/03/20 05:41:46;;;;;;;22.27;14.07;;;;;;;;;;4811920;29;20107;-76
2022/03/20 05:44:12;;;;;;;23.73;14.80;;;;;;;;;;4814128;29;20081;-77
2022/03/20 05:46:40;;;;;;;24.35;15.10;;;;;;;;;;4812370;29;20098;-76
2022/03/20 05:49:06;;;;;;;21.73;13.88;;;;;;;;;;4812538;29;20050;-77
2022/03/20 05:51:34;;;;;;;22.65;14.32;;;;;;;;;;4827985;29;20073;-76
2022/03/20 05:54:00;;;;;;;23.15;14.45;;;;;;;;;;4827871;29;20057;-77
2022/03/20 05:59:11;;;;;;;25.00;15.82;;;;;;;;;;4826913;29;20050;-77
2022/03/20 06:01:37;;;;;;;24.60;14.93;;;;;;;;;;4811424;29;20061;-77
2022/03/20 06:04:05;;;;;;;26.20;15.30;;;;;;;;;;4812260;29;20058;-77
2022/03/20 06:06:31;;;;;;;24.77;16.02;;;;;;;;;;4826489;29;20081;-77
2022/03/20 06:08:57;;;;;;;25.75;15.90;;;;;;;;;;4811840;29;20079;-76
2022/03/20 06:11:23;;;;;;;27.55;16.42;;;;;;;;;;4810435;29;20114;-77
2022/03/20 06:13:49;;;;;;;23.25;15.45;;;;;;;;;;4826291;29;20065;-77
2022/03/20 06:16:16;;;;;;;24.27;15.77;;;;;;;;;;4826830;29;20101;-77
2022/03/20 06:18:42;;;;;;;26.30;15.80;;;;;;;;;;4811264;29;20046;-77
2022/03/20 06:21:12;;;;;;;20.73;14.68;;;;;;;;;;4811206;29;20192;-76
2022/03/20 06:23:38;;;;;;;26.20;15.75;;;;;;;;;;4811806;29;20046;-77
2022/03/20 06:26:05;;;;;;;23.55;15.18;;;;;;;;;;4827727;29;20129;-76
2022/03/20 06:28:32;;;;;;;24.13;15.73;;;;;;;;;;4812706;29;20054;-75
2022/03/20 06:30:59;;;;;;;27.20;14.98;;;;;;;;;;4812683;29;20050;-77
2022/03/20 06:33:25;;;;;;;21.45;14.70;;;;;;;;;;4826618;29;20053;-77
2022/03/20 06:35:52;;;;;;;23.65;15.15;;;;;;;;;;4811378;29;20073;-77
2022/03/20 06:38:19;;;;;;;23.15;14.77;;;;;;;;;;4826403;29;20081;-77
2022/03/20 06:40:45;;;;;;;24.05;15.13;;;;;;;;;;4810726;29;20053;-77
2022/03/20 06:43:11;;;;;;;27.27;15.88;;;;;;;;;;4811237;29;20137;-77
2022/03/20 06:45:37;;;;;;;28.45;15.38;;;;;;;;;;4810622;29;20133;-77
2022/03/20 06:48:04;;;;;;;21.55;14.73;;;;;;;;;;4826244;29;20046;-77
2022/03/20 06:50:30;;;;;;;25.77;16.90;;;;;;;;;;4826086;29;20073;-79
2022/03/20 06:53:03;;;;;;;22.40;14.20;;;;;;;;;;4810582;29;20129;-77
2022/03/20 06:55:30;;;;;;;25.17;15.20;;;;;;;;;;4811174;29;20118;-77
2022/03/20 06:57:58;;;;;;;24.42;15.75;;;;;;;;;;4826240;29;20137;-77
2022/03/20 07:00:26;;;;;;;21.95;15.00;;;;;;;;;;4810714;29;20089;-78
2022/03/20 07:02:55;;;;;;;23.85;15.73;;;;;;;;;;4810731;29;20041;-77
2022/03/20 07:05:22;;;;;;;25.55;15.85;;;;;;;;;;4810918;29;20069;-77
2022/03/20 07:07:50;;;;;;;24.33;15.20;;;;;;;;;;4810302;29;20042;-77
2022/03/20 07:10:16;;;;;;;21.77;15.15;;;;;;;;;;4810627;29;20090;-77
2022/03/20 07:12:42;;;;;;;23.90;15.23;;;;;;;;;;4825105;29;20053;-78
2022/03/20 07:15:08;;;;;;;23.13;14.70;;;;;;;;;;4825695;29;20042;-76
2022/03/20 07:17:37;;;;;;;23.38;16.13;;;;;;;;;;4810199;29;20049;-77
2022/03/20 07:20:13;;;;;;;21.33;15.45;;;;;;;;;;4810245;29;20049;-79
2022/03/20 07:22:40;;;;;;;21.10;14.52;;;;;;;;;;4810562;29;20082;-78
2022/03/20 07:30:36;;;;;;;22.77;15.05;;;;;;;;;;4825419;29;20386;-77
2022/03/20 07:33:02;;;;;;;26.73;15.77;;;;;;;;;;4810080;29;20061;-76
2022/03/20 07:35:28;;;;;;;26.00;15.35;;;;;;;;;;4810000;29;20045;-78
2022/03/20 07:37:54;;;;;;;23.23;16.33;;;;;;;;;;4825258;29;20050;-77
2022/03/20 07:40:22;;;;;;;21.30;14.45;;;;;;;;;;4810196;29;20058;-77
2022/03/20 07:42:48;;;;;;;24.02;15.35;;;;;;;;;;4809240;29;20499;-77
2022/03/20 07:45:14;;;;;;;22.85;15.15;;;;;;;;;;4810279;29;20136;-77
2022/03/20 07:47:40;;;;;;;26.15;16.52;;;;;;;;;;4809461;29;20049;-77
2022/03/20 07:50:08;;;;;;;22.38;14.77;;;;;;;;;;4810109;29;20042;-77
2022/03/20 07:52:35;;;;;;;25.92;16.75;;;;;;;;;;4810388;29;20049;-78
2022/03/20 07:55:02;;;;;;;25.33;16.02;;;;;;;;;;4825089;29;20546;-79
2022/03/20 07:57:29;;;;;;;;;;;;;;;;;;4810367;29;20091;-78
2022/03/20 07:59:56;;;;;;;26.48;16.48;;;;;;;;;;4809370;29;20014;-78
2022/03/20 08:02:23;;;;;;;20.45;14.95;;;;;;;;;;4810120;29;20130;-78
2022/03/20 08:04:51;;;;;;;21.65;15.45;;;;;;;;;;4809576;29;20513;-77
2022/03/20 08:07:19;;;;;;;;;;;;;;;;;;4810184;29;20046;-78
2022/03/20 08:09:46;;;;;;;24.70;15.50;;;;;;;;;;4809177;29;20008;-79
2022/03/20 08:12:12;;;;;;;21.67;15.05;;;;;;;;;;4825042;29;20474;-78
2022/03/20 08:14:39;;;;;;;22.50;15.85;;;;;;;;;;4809152;29;20145;-78
2022/03/20 08:17:08;;;;;;;23.33;14.82;;;;;;;;;;4824892;29;20081;-77
2022/03/20 08:19:34;;;;;;;23.50;15.88;;;;;;;;;;4809431;29;20099;-77
2022/03/20 08:22:03;;;;;;;22.20;15.38;;;;;;;;;;4824574;29;20056;-78
2022/03/20 08:24:29;;;;;;;22.83;15.50;;;;;;;;;;4809450;29;20053;-78
2022/03/20 08:26:55;;;;;;;22.33;16.38;;;;;;;;;;4824411;29;20510;-77
2022/03/20 08:29:21;;;;;;;22.80;16.23;;;;;;;;;;4809728;29;20132;-77
2022/03/20 08:31:47;;;;;;;;;;;;;;;;;;4809164;29;20050;-78
2022/03/20 08:34:15;;;;;;;24.30;15.85;;;;;;;;;;4810932;29;20015;-78
2022/03/20 08:36:44;;;;;;;24.23;16.27;;;;;;;;;;4812586;29;20050;-77
2022/03/20 08:39:10;;;;;;;22.67;15.85;;;;;;;;;;4813193;29;20079;-78
2022/03/20 08:41:37;;;;;;;21.75;16.00;;;;;;;;;;4828470;29;20049;-78
2022/03/20 08:44:04;;;;;;;21.92;16.27;;;;;;;;;;4813542;29;20049;-77
2022/03/20 08:46:30;;;;;;;;;;;;;;;;;;4828786;29;20096;-78
2022/03/20 08:48:57;;;;;;;24.20;17.83;;;;;;;;;;4826775;29;19969;-77
2022/03/20 08:51:24;;;;;;;24.67;17.02;;;;;;;;;;4827681;29;20132;-79
2022/03/20 08:53:50;;;;;;;23.48;17.42;;;;;;;;;;4812993;29;20084;-77
2022/03/20 08:56:17;;;;;;;28.15;17.88;;;;;;;;;;4813361;29;20137;-78
2022/03/20 08:58:44;;;;;;;26.35;16.77;;;;;;;;;;4828057;29;20107;-78
2022/03/20 09:01:10;;;;;;;;;;;;;;;;;;4828184;29;20092;-78
2022/03/20 09:03:35;;;;;;;;;;;;;;;;;;4812433;29;19989;-78
2022/03/20 09:06:01;;;;;;;;;;;;;;;;;;4812333;29;19920;-77
2022/03/20 09:08:27;;;;;;;;;;;;;;;;;;4828842;29;19921;-78
2022/03/20 09:10:53;;;;;;;;;;;;;;;;;;4812416;29;19924;-78
2022/03/20 09:13:19;;;;;;;;;;;;;;;;;;4827597;29;19985;-79
2022/03/20 09:15:45;;;;;;;;;;;;;;;;;;4828068;29;19920;-78
2022/03/20 09:20:56;;;;;;;;;;;;;;;;;;4827982;29;19969;-77
2022/03/20 09:23:22;;;;;;;26.70;16.75;;;;;;;;;;4828058;29;19921;-77
2022/03/20 09:25:48;;;;;;;24.50;17.52;;;;;;;;;;4827494;29;20046;-77
2022/03/20 09:28:14;;;;;;;23.90;17.08;;;;;;;;;;4827785;29;20049;-77
2022/03/20 09:30:42;;;;;;;21.73;17.27;;;;;;;;;;4812614;29;20117;-77
2022/03/20 09:33:08;;;;;;;24.92;17.40;;;;;;;;;;4811608;29;20050;-77
2022/03/20 09:35:35;;;;;;;28.55;20.40;;;;;;;;;;4812622;29;20137;-76
2022/03/20 09:38:02;;;;;;;23.67;17.83;;;;;;;;;;4812686;29;20054;-77
2022/03/20 09:40:28;;;;;;;23.83;17.48;;;;;;;;;;4827518;29;20083;-77
2022/03/20 09:42:54;;;;;;;27.58;18.52;;;;;;;;;;4827407;29;20046;-77
2022/03/20 09:45:20;;;;;;;25.90;17.50;;;;;;;;;;4811664;29;20140;-77
2022/03/20 09:47:47;;;;;;;23.67;17.80;;;;;;;;;;4811988;29;20053;-76
2022/03/20 09:50:14;;;;;;;28.52;17.73;;;;;;;;;;4812259;29;20106;-77
2022/03/20 09:52:40;;;;;;;29.27;18.63;;;;;;;;;;4827158;29;20138;-77
2022/03/20 09:55:08;;;;;;;30.33;18.75;;;;;;;;;;4826775;29;20042;-77
2022/03/20 09:57:34;;;;;;;25.85;17.75;;;;;;;;;;4827538;29;20042;-77
2022/03/20 10:00:05;;;;;;;24.13;17.45;;;;;;;;;;4811821;29;20050;-77
2022/03/20 10:02:31;;;;;;;25.73;18.17;;;;;;;;;;4826981;29;20478;-76
2022/03/20 10:05:01;;;;;;;27.45;18.83;;;;;;;;;;4811248;29;20550;-77
2022/03/20 10:07:33;;;;;;;26.77;18.17;;;;;;;;;;4812352;29;20082;-76
2022/03/20 10:10:18;;;;;;;25.60;17.83;;;;;;;;;;4826473;29;20046;-77
2022/03/20 10:12:50;;;;;;;28.20;18.25;;;;;;;;;;4811346;29;20046;-77
2022/03/20 10:15:27;;;;;;;25.05;18.23;;;;;;;;;;4827056;29;20050;-77
2022/03/20 10:18:17;;;;;;;30.15;20.27;;;;;;;;;;4811845;29;20089;-76
2022/03/20 10:20:44;;;;;;;28.77;19.20;;;;;;;;;;4826596;29;20056;-77
2022/03/20 10:23:29;;;;;;;26.90;18.88;;;;;;;;;;4812162;29;20046;-76
2022/03/20 10:25:55;;;;;;;28.13;18.73;;;;;;;;;;4826642;29;20125;-76
2022/03/20 10:28:22;;;;;;;27.25;18.88;;;;;;;;;;4811804;29;20137;-77
2022/03/20 10:31:01;;;;;;;27.70;19.50;;;;;;;;;;4826197;29;20042;-77
2022/03/20 10:33:27;;;;;;;32.00;19.58;;;;;;;;;;4810938;29;20490;-77
2022/03/20 10:36:12;;;;;;;28.65;18.55;;;;;;;;;;4811183;29;20133;-77
2022/03/20 10:38:39;;;;;;;31.40;19.55;;;;;;;;;;4811815;29;20486;-77
2022/03/20 10:41:23;;;;;;;26.02;17.92;;;;;;;;;;4826412;29;20095;-77
2022/03/20 10:43:49;;;;;;;26.80;19.05;;;;;;;;;;4811278;29;20045;-76
2022/03/20 10:46:34;;;;;;;25.67;18.92;;;;;;;;;;4826459;29;20128;-77
2022/03/20 10:49:00;;;;;;;;;;;;;;;;;;4826841;29;20389;-76
2022/03/20 10:51:44;;;;;;;29.67;19.52;;;;;;;;;;4826414;29;19920;-77
2022/03/20 10:54:10;;;;;;;31.52;19.25;;;;;;;;;;4811140;29;20047;-77
2022/03/20 10:56:37;;;;;;;27.67;19.83;;;;;;;;;;4810562;29;20059;-78
2022/03/20 10:59:15;;;;;;;31.55;19.40;;;;;;;;;;4826190;29;20136;-77
2022/03/20 11:01:45;;;;;;;27.58;19.17;;;;;;;;;;4810997;29;20482;-76
2022/03/20 11:04:12;;;;;;;28.45;19.88;;;;;;;;;;4810946;29;20108;-76
2022/03/20 11:06:41;;;;;;;30.77;20.85;;;;;;;;;;4826212;29;20057;-76
2022/03/20 11:09:07;;;;;;;27.08;20.63;;;;;;;;;;4825921;29;20054;-77
2022/03/20 11:11:35;;;;;;;28.85;19.25;;;;;;;;;;4810978;29;20053;-76
2022/03/20 11:14:03;;;;;;;27.60;19.42;;;;;;;;;;4825675;29;20094;-77
2022/03/20 11:16:30;;;;;;;28.40;19.63;;;;;;;;;;4826077;29;20050;-76
2022/03/20 11:18:57;;;;;;;32.85;18.52;;;;;;;;;;4825287;29;20132;-76
2022/03/20 11:21:27;;;;;;;30.65;20.00;;;;;;;;;;4811011;29;20153;-75
2022/03/20 11:23:58;;;;;;;29.95;19.88;;;;;;;;;;4810516;29;20048;-75
2022/03/20 11:26:25;;;;;;;29.65;21.35;;;;;;;;;;4826387;29;20113;-78
2022/03/20 11:28:55;;;;;;;26.35;19.42;;;;;;;;;;4810290;29;20105;-75
2022/03/20 11:31:21;;;;;;;26.98;20.35;;;;;;;;;;4810049;29;20041;-76
2022/03/20 11:33:48;;;;;;;33.60;21.55;;;;;;;;;;4828907;29;20088;-76
2022/03/20 11:36:14;;;;;;;29.40;20.25;;;;;;;;;;4829284;29;20050;-76
2022/03/20 11:38:41;;;;;;;29.13;20.05;;;;;;;;;;4844012;29;20053;-75
2022/03/20 11:41:16;;;;;;;32.05;19.52;;;;;;;;;;4828294;29;20080;-76
2022/03/20 11:43:44;;;;;;;30.38;20.60;;;;;;;;;;4829015;29;20048;-75
2022/03/20 11:46:34;;;;;;;30.40;21.55;;;;;;;;;;4828734;29;20053;-76
2022/03/20 11:49:19;;;;;;;29.27;20.60;;;;;;;;;;4843724;29;20136;-76
2022/03/20 11:52:07;;;;;;;34.40;20.85;;;;;;;;;;4828395;29;20042;-76
2022/03/20 11:54:40;;;;;;;34.65;21.42;;;;;;;;;;4828664;29;20426;-76
2022/03/20 11:57:24;;;;;;;31.73;20.15;;;;;;;;;;4843179;29;20045;-76
2022/03/20 11:59:51;;;;;;;31.48;20.77;;;;;;;;;;4828340;29;20049;-77
2022/03/20 12:02:18;;;;;;;28.90;20.20;;;;;;;;;;4828510;29;20045;-76
2022/03/20 12:05:11;;;;;;;34.28;20.80;;;;;;;;;;4828294;29;20045;-76
2022/03/20 12:07:40;;;;;;;32.35;21.55;;;;;;;;;;4801114;29;20114;-78
2022/03/20 12:10:10;;;;;;;35.58;21.50;;;;;;;;;;4826919;29;20478;-76
2022/03/20 12:13:00;;;;;;;29.52;21.17;;;;;;;;;;4843356;29;20050;-75
2022/03/20 12:15:29;;;;;;;30.33;20.67;;;;;;;;;;4827871;29;20053;-77
2022/03/20 12:18:00;;;;;;;32.00;20.63;;;;;;;;;;4828050;29;20079;-76
2022/03/20 12:21:02;;;;;;;32.13;21.70;;;;;;;;;;4843554;29;20454;-77
2022/03/20 12:23:38;;;;;;;27.80;20.08;;;;;;;;;;4766840;30;20138;-76
2022/03/20 12:26:22;;;;;;;28.10;20.42;;;;;;;;;;4845502;29;20058;-78
2022/03/20 12:28:48;;;;;;;34.78;21.90;;;;;;;;;;4828074;29;20053;-76
2022/03/20 12:31:25;;;;;;;27.92;19.60;;;;;;;;;;4841599;29;20058;-78
2022/03/20 12:34:11;;;;;;;29.70;21.40;;;;;;;;;;4828422;29;20050;-76
2022/03/20 12:36:37;;;;;;;31.73;20.13;;;;;;;;;;4841709;29;20053;-77
2022/03/20 12:39:03;;;;;;;29.98;20.00;;;;;;;;;;4841715;29;20053;-76
2022/03/20 12:41:29;;;;;;;30.85;21.27;;;;;;;;;;4825967;29;20144;-76
2022/03/20 12:43:57;;;;;;;27.55;20.05;;;;;;;;;;4841279;29;20502;-76
2022/03/20 12:46:24;;;;;;;34.35;22.08;;;;;;;;;;4842571;29;20136;-77
2022/03/20 12:48:51;;;;;;;29.98;21.77;;;;;;;;;;4842520;29;20052;-76
2022/03/20 12:51:21;;;;;;;28.83;20.70;;;;;;;;;;4826629;29;20057;-76
2022/03/20 12:53:48;;;;;;;27.50;20.52;;;;;;;;;;4827323;29;20049;-76
2022/03/20 12:56:31;;;;;;;30.33;20.70;;;;;;;;;;4842794;29;20067;-76
2022/03/20 12:58:57;;;;;;;28.00;19.73;;;;;;;;;;4842877;29;20073;-76
2022/03/20 13:01:23;;;;;;;27.52;21.40;;;;;;;;;;4827880;29;20057;-76
2022/03/20 13:03:49;;;;;;;30.45;22.20;;;;;;;;;;4843029;29;20494;-76
2022/03/20 13:06:16;;;;;;;33.38;20.85;;;;;;;;;;4827452;29;20057;-76
2022/03/20 13:08:46;;;;;;;27.52;20.10;;;;;;;;;;4827905;29;20049;-76
2022/03/20 13:14:01;;;;;;;27.95;21.02;;;;;;;;;;4842515;29;20098;-76
2022/03/20 13:16:28;;;;;;;28.08;20.05;;;;;;;;;;4827927;29;20058;-76
2022/03/20 13:18:54;;;;;;;28.83;21.63;;;;;;;;;;4842729;29;20128;-76
2022/03/20 13:21:20;;;;;;;30.35;21.55;;;;;;;;;;4830279;29;20045;-78
2022/03/20 13:23:47;;;;;;;28.38;20.33;;;;;;;;;;4848218;29;20123;-76
2022/03/20 13:26:18;;;;;;;28.88;20.48;;;;;;;;;;4849746;29;20053;-76
2022/03/20 13:28:45;;;;;;;26.90;20.27;;;;;;;;;;4833760;29;20053;-75
2022/03/20 13:31:16;;;;;;;29.30;20.58;;;;;;;;;;4831516;29;20514;-76
2022/03/20 13:33:51;;;;;;;31.13;21.30;;;;;;;;;;4831035;29;20383;-76
2022/03/20 13:36:18;;;;;;;35.88;21.40;;;;;;;;;;4845977;29;20069;-76
2022/03/20 13:38:45;;;;;;;34.22;22.13;;;;;;;;;;4830917;29;20109;-76
2022/03/20 13:41:13;;;;;;;30.75;20.98;;;;;;;;;;4845402;29;20060;-76
2022/03/20 13:43:40;;;;;;;33.78;21.90;;;;;;;;;;4830444;29;20049;-75
2022/03/20 13:46:16;;;;;;;30.27;21.55;;;;;;;;;;4830336;29;20060;-76
2022/03/20 13:48:43;;;;;;;30.67;20.83;;;;;;;;;;4830466;29;20049;-81
2022/03/20 13:51:09;;;;;;;28.13;20.25;;;;;;;;;;4845191;29;20049;-75
2022/03/20 13:53:35;;;;;;;32.53;20.92;;;;;;;;;;4845518;29;20050;-76
2022/03/20 13:56:02;;;;;;;32.60;20.83;;;;;;;;;;4844952;29;20057;-75
2022/03/20 13:58:28;;;;;;;34.50;21.17;;;;;;;;;;4845336;29;20053;-75
2022/03/20 14:01:01;;;;;;;28.55;21.33;;;;;;;;;;4830486;29;20060;-75
2022/03/20 14:03:29;;;;;;;29.00;20.35;;;;;;;;;;4845652;29;20053;-76
2022/03/20 14:05:55;;;;;;;30.27;20.80;;;;;;;;;;4829982;29;20064;-75
2022/03/20 14:08:21;;;;;;;28.95;21.83;;;;;;;;;;4830073;29;20049;-76
2022/03/20 14:10:52;;;;;;;34.00;21.75;;;;;;;;;;4830106;29;20382;-76
2022/03/20 14:13:25;;;;;;;31.88;22.75;;;;;;;;;;4829352;29;20045;-74
2022/03/20 14:16:04;;;;;;;31.95;21.60;;;;;;;;;;4830369;29;20060;-76
2022/03/20 14:18:31;;;;;;;27.45;20.35;;;;;;;;;;4844603;29;20129;-78
2022/03/20 14:21:07;;;;;;;29.98;21.50;;;;;;;;;;4829470;29;20057;-79
2022/03/20 14:23:34;;;;;;;31.45;22.30;;;;;;;;;;4844203;29;20051;-78
2022/03/20 14:26:02;;;;;;;30.65;22.90;;;;;;;;;;4829050;29;20105;-77
2022/03/20 14:28:30;;;;;;;41.33;21.42;;;;;;;;;;4844347;29;20049;-77
2022/03/20 14:39:46;;;;;;;;;;;;;;;;;;4771072;30;19965;-78
2022/03/20 14:42:29;;;;;;;31.77;23.17;;;;;;;;;;4803144;29;19932;-79
2022/03/20 14:44:55;;;;;;;31.45;21.70;;;;;;;;;;4826064;29;20061;-78
2022/03/20 14:47:25;;;;;;;31.65;20.80;;;;;;;;;;4825093;29;20294;-77
2022/03/20 14:49:51;;;;;;;29.38;21.42;;;;;;;;;;4826061;29;20050;-77
2022/03/20 14:52:20;;;;;;;28.30;20.17;;;;;;;;;;4825295;29;20054;-78
2022/03/20 14:54:47;;;;;;;30.08;21.38;;;;;;;;;;4811763;29;20052;-80
2022/03/20 14:57:14;;;;;;;29.95;21.10;;;;;;;;;;4825939;29;20094;-78
2022/03/20 14:59:40;;;;;;;33.13;20.90;;;;;;;;;;4810867;29;20069;-80
2022/03/20 15:02:06;;;;;;;29.30;20.92;;;;;;;;;;4810578;29;20054;-77
2022/03/20 15:04:34;;;;;;;28.58;21.20;;;;;;;;;;4825947;29;20046;-77
2022/03/20 15:07:01;;;;;;;30.13;20.35;;;;;;;;;;4809912;29;20049;-83
2022/03/20 15:12:12;;;;;;;31.38;20.90;;;;;;;;;;4825457;29;20054;-78
2022/03/20 15:14:38;;;;;;;27.63;20.85;;;;;;;;;;4810149;29;20284;-76
2022/03/20 15:17:05;;;;;;;32.80;21.10;;;;;;;;;;4825155;29;20353;-77
2022/03/20 15:19:31;;;;;;;29.33;21.20;;;;;;;;;;4810402;29;20054;-76
2022/03/20 15:21:58;;;;;;;27.45;20.50;;;;;;;;;;4825218;29;20194;-80
2022/03/20 15:24:24;;;;;;;27.55;20.70;;;;;;;;;;4824947;29;20050;-77